Time;durP1;ratioP1;P1;durP2;ratioP2;P2;SDS_P1;SDS_P2;PMS_P1;PMS_P2;Temp;Humidity;BMP_temperature;BMP_pressure;BME280_temperature;BME280_humidity;BME280_pressure;Samples;Min_cycle;Max_cycle;Signal;HPM_P1;HPM_P2
2023/08/21 00:01:28;;;;;;;7.13;4.40;;;;;;;19.83;86.26;93451.69;5052012;28;20049;-76
2023/08/21 00:03:54;;;;;;;5.50;4.10;;;;;;;19.80;88.80;93459.25;5053839;28;20052;-76
2023/08/21 00:06:21;;;;;;;5.65;3.90;;;;;;;19.57;88.77;93441.25;5050394;28;20091;-76
2023/08/21 00:08:48;;;;;;;8.75;4.88;;;;;;;19.68;88.63;93449.09;5053102;28;20505;-76
2023/08/21 00:11:14;;;;;;;5.72;4.05;;;;;;;19.69;87.95;93445.44;5055300;28;20048;-76
2023/08/21 00:13:44;;;;;;;7.05;4.22;;;;;;;19.47;92.13;93447.25;5053147;28;20500;-76
2023/08/21 00:16:12;;;;;;;6.55;4.25;;;;;;;19.43;89.94;93441.00;5054413;28;20052;-76
2023/08/21 00:18:39;;;;;;;9.73;5.07;;;;;;;19.43;90.65;93442.81;5055166;28;20045;-76
2023/08/21 00:21:06;;;;;;;6.63;4.05;;;;;;;19.39;90.41;93442.53;5054886;28;20056;-76
2023/08/21 00:23:33;;;;;;;5.70;4.03;;;;;;;19.48;90.20;93438.38;5061521;28;20064;-76
2023/08/21 00:26:00;;;;;;;6.93;4.65;;;;;;;19.49;89.97;93439.94;5057383;28;20638;-76
2023/08/21 00:28:32;;;;;;;6.90;4.35;;;;;;;19.44;90.41;93442.53;5051196;28;20071;-76
2023/08/21 00:31:01;;;;;;;5.00;4.25;;;;;;;19.39;90.17;93446.97;5059929;28;20045;-76
2023/08/21 00:33:30;;;;;;;6.10;3.90;;;;;;;19.39;90.03;93454.81;5055239;28;20126;-76
2023/08/21 00:35:56;;;;;;;5.95;4.40;;;;;;;19.40;90.14;93443.34;5055897;28;20057;-76
2023/08/21 00:38:23;;;;;;;6.38;4.45;;;;;;;19.29;90.37;93437.31;5053262;28;20086;-76
2023/08/21 00:40:50;;;;;;;5.65;4.50;;;;;;;19.23;91.39;93434.72;5053080;28;20565;-76
2023/08/21 00:43:17;;;;;;;8.73;5.38;;;;;;;19.21;91.96;93449.03;5055192;28;20048;-76
2023/08/21 00:45:46;;;;;;;6.25;4.53;;;;;;;18.91;95.08;93453.88;5050825;28;20690;-76
2023/08/21 00:48:14;;;;;;;5.72;4.63;;;;;;;18.83;95.27;93446.53;5055377;28;20044;-77
2023/08/21 00:50:43;;;;;;;8.93;5.38;;;;;;;18.79;95.90;93455.94;5051656;28;20049;-76
2023/08/21 00:53:11;;;;;;;6.55;4.65;;;;;;;18.84;95.41;93453.31;5051068;28;20049;-76
2023/08/21 00:55:39;;;;;;;7.28;4.35;;;;;;;18.87;95.08;93449.41;5053443;28;20122;-76
2023/08/21 00:58:06;;;;;;;6.07;4.43;;;;;;;18.88;94.95;93458.81;5060621;28;20041;-76
2023/08/21 01:00:34;;;;;;;7.35;5.15;;;;;;;18.88;94.63;93454.38;5048060;28;20563;-77
2023/08/21 01:03:01;;;;;;;5.53;4.68;;;;;;;18.92;94.11;93452.03;5062742;28;20110;-76
2023/08/21 01:05:27;;;;;;;5.95;4.45;;;;;;;18.92;94.96;93459.84;5051243;28;20103;-76
2023/08/21 01:08:02;;;;;;;6.47;4.57;;;;;;;18.88;94.60;93459.59;5062608;28;20048;-76
2023/08/21 01:10:43;;;;;;;7.03;4.53;;;;;;;18.86;94.60;93466.06;5049269;28;20045;-76
2023/08/21 01:13:18;;;;;;;7.68;4.45;;;;;;;18.87;96.31;93465.03;5043839;28;20044;-76
2023/08/21 01:15:46;;;;;;;12.98;5.32;;;;;;;18.80;95.01;93454.88;5053668;28;20044;-76
2023/08/21 01:18:14;;;;;;;6.10;4.57;;;;;;;18.66;97.34;93446.75;5050823;28;20093;-76
2023/08/21 01:20:42;;;;;;;6.45;5.03;;;;;;;18.76;95.33;93459.03;5049451;28;20456;-76
2023/08/21 01:23:10;;;;;;;6.20;5.00;;;;;;;18.73;95.53;93457.72;5056660;28;20044;-76
2023/08/21 01:25:38;;;;;;;9.32;5.32;;;;;;;18.70;95.66;93461.59;5051662;28;20049;-77
2023/08/21 01:28:05;;;;;;;9.18;5.25;;;;;;;18.70;96.12;93455.59;5061922;28;20132;-76
2023/08/21 01:30:34;;;;;;;5.90;4.93;;;;;;;18.74;95.40;93450.69;5047667;28;20073;-77
2023/08/21 01:33:06;;;;;;;10.32;4.60;;;;;;;18.73;95.57;93456.91;5053913;28;20113;-77
2023/08/21 01:35:35;;;;;;;7.65;4.78;;;;;;;18.68;97.05;93462.88;5054674;28;20124;-77
2023/08/21 01:38:03;;;;;;;9.43;4.65;;;;;;;18.68;95.42;93460.28;5048564;28;20127;-76
2023/08/21 01:40:29;;;;;;;7.60;5.15;;;;;;;18.67;96.64;93469.13;5049907;28;20045;-76
2023/08/21 01:42:57;;;;;;;8.68;4.65;;;;;;;18.65;96.50;93461.56;5057765;28;20113;-76
2023/08/21 01:45:24;;;;;;;7.78;5.03;;;;;;;18.63;96.52;93461.06;5050460;28;20045;-76
2023/08/21 01:47:51;;;;;;;6.00;5.18;;;;;;;18.58;97.04;93476.63;5049025;28;20080;-77
2023/08/21 01:50:18;;;;;;;6.90;5.25;;;;;;;18.58;97.38;93475.84;5063380;28;20040;-77
2023/08/21 01:52:45;;;;;;;7.40;5.25;;;;;;;18.54;96.30;93465.16;5056601;28;20048;-76
2023/08/21 01:55:11;;;;;;;5.47;4.60;;;;;;;18.52;97.24;93469.84;5051011;28;20546;-76
2023/08/21 01:57:38;;;;;;;7.95;5.10;;;;;;;18.43;97.65;93459.91;5054922;28;20542;-76
2023/08/21 02:00:08;;;;;;;8.35;5.10;;;;;;;18.25;98.14;93442.94;5048016;28;20094;-75
2023/08/21 02:02:35;;;;;;;7.93;4.70;;;;;;;18.34;97.29;93458.03;5055889;28;20131;-75
2023/08/21 02:05:03;;;;;;;6.68;5.28;;;;;;;18.35;98.90;93464.81;5051055;28;20041;-76
2023/08/21 02:07:30;;;;;;;7.68;5.45;;;;;;;18.23;99.00;93459.81;5054049;28;20155;-76
2023/08/21 02:09:57;;;;;;;7.45;5.32;;;;;;;18.20;100.00;93466.31;5049053;28;20044;-77
2023/08/21 02:12:23;;;;;;;7.75;5.20;;;;;;;18.15;99.71;93440.28;5049915;28;20044;-76
2023/08/21 02:14:50;;;;;;;8.20;5.10;;;;;;;18.20;100.00;93463.69;5048541;28;20106;-76
2023/08/21 02:17:18;;;;;;;6.88;5.20;;;;;;;18.19;99.41;93456.91;5050575;28;20040;-76
2023/08/21 02:19:45;;;;;;;6.85;5.00;;;;;;;18.22;100.00;93466.03;5048994;28;20091;-76
2023/08/21 02:22:11;;;;;;;6.40;4.95;;;;;;;18.09;100.00;93455.03;5059575;28;20056;-77
2023/08/21 02:24:38;;;;;;;6.60;5.15;;;;;;;18.06;100.00;93458.16;5057343;28;20045;-77
2023/08/21 02:27:05;;;;;;;6.40;4.95;;;;;;;18.07;100.00;93454.50;5058960;28;20756;-76
2023/08/21 02:29:32;;;;;;;7.30;5.20;;;;;;;18.09;100.00;93454.28;5058518;28;20094;-77
2023/08/21 02:31:59;;;;;;;6.63;5.32;;;;;;;18.08;100.00;93460.47;5051514;28;20040;-77
2023/08/21 02:34:27;;;;;;;6.60;4.72;;;;;;;18.10;100.00;93450.63;5054126;28;20131;-77
2023/08/21 02:36:54;;;;;;;9.65;5.00;;;;;;;18.08;99.98;93456.06;5053312;28;20540;-77
2023/08/21 02:39:21;;;;;;;11.13;5.32;;;;;;;18.07;100.00;93456.31;5056886;28;20124;-77
2023/08/21 02:41:47;;;;;;;6.68;5.18;;;;;;;18.05;100.00;93453.16;5054289;28;20056;-77
2023/08/21 02:44:14;;;;;;;8.88;5.32;;;;;;;18.00;100.00;93459.91;5057895;28;20444;-76
2023/08/21 02:46:41;;;;;;;9.90;6.07;;;;;;;17.95;100.00;93456.50;5053445;28;20102;-76
2023/08/21 02:49:07;;;;;;;6.75;5.18;;;;;;;17.88;100.00;93454.88;5049348;28;20550;-77
2023/08/21 02:51:36;;;;;;;7.95;5.35;;;;;;;17.85;100.00;93439.78;5049672;28;20041;-77
2023/08/21 02:54:02;;;;;;;8.63;5.35;;;;;;;17.79;100.00;93440.00;5047411;28;20110;-77
2023/08/21 02:56:29;;;;;;;8.95;5.47;;;;;;;17.82;100.00;93448.06;5051494;28;20072;-76
2023/08/21 02:58:56;;;;;;;6.95;5.68;;;;;;;17.76;100.00;93443.88;5059906;28;20049;-75
2023/08/21 03:01:22;;;;;;;10.00;5.55;;;;;;;17.75;100.00;93450.09;5049055;28;20053;-76
2023/08/21 03:03:49;;;;;;;7.45;5.20;;;;;;;17.76;100.00;93441.25;5053561;28;20496;-76
2023/08/21 03:06:16;;;;;;;8.13;5.50;;;;;;;17.73;100.00;93445.13;5051512;28;20103;-76
2023/08/21 03:08:44;;;;;;;9.65;5.70;;;;;;;17.65;100.00;93444.81;5048680;28;20133;-76
2023/08/21 03:11:11;;;;;;;12.00;5.32;;;;;;;17.74;100.00;93457.09;5047427;28;20519;-76
2023/08/21 03:13:38;;;;;;;7.05;5.22;;;;;;;17.72;100.00;93456.56;5052758;28;20098;-76
2023/08/21 03:16:05;;;;;;;8.48;5.78;;;;;;;17.66;100.00;93459.38;5058315;28;20052;-76
2023/08/21 03:18:33;;;;;;;7.28;5.15;;;;;;;17.60;100.00;93461.16;5054218;28;20110;-76
2023/08/21 03:21:00;;;;;;;6.45;5.07;;;;;;;17.58;100.00;93461.41;5052738;28;20554;-76
2023/08/21 03:23:26;;;;;;;7.75;5.80;;;;;;;17.52;100.00;93459.78;5052726;28;20114;-75
2023/08/21 03:25:54;;;;;;;7.10;5.57;;;;;;;17.50;100.00;93469.66;5061906;28;20048;-75
2023/08/21 03:28:21;;;;;;;7.30;5.80;;;;;;;17.51;100.00;93471.22;5057895;28;20094;-76
2023/08/21 03:30:48;;;;;;;6.35;5.63;;;;;;;17.46;100.00;93471.16;5054945;28;20053;-75
2023/08/21 03:33:14;;;;;;;9.88;6.03;;;;;;;17.46;100.00;93469.34;5053667;28;20045;-75
2023/08/21 03:35:41;;;;;;;10.35;5.72;;;;;;;17.45;100.00;93467.75;5053031;28;20045;-75
2023/08/21 03:38:08;;;;;;;8.18;5.45;;;;;;;17.43;100.00;93471.63;5055074;28;20049;-75
2023/08/21 03:40:34;;;;;;;8.25;6.15;;;;;;;17.36;100.00;93462.25;5059426;28;20048;-75
2023/08/21 03:43:03;;;;;;;6.70;4.65;;;;;;;17.40;100.00;93472.91;5054770;28;20090;-75
2023/08/21 03:45:29;;;;;;;7.00;5.32;;;;;;;17.40;100.00;93469.56;5056138;28;20048;-75
2023/08/21 03:47:56;;;;;;;8.50;5.97;;;;;;;17.36;100.00;93471.84;5052558;28;20102;-75
2023/08/21 03:50:23;;;;;;;8.25;5.38;;;;;;;17.37;100.00;93473.41;5050978;28;20398;-75
2023/08/21 03:52:50;;;;;;;10.45;5.43;;;;;;;17.36;100.00;93477.81;5055477;28;20048;-75
2023/08/21 03:55:16;;;;;;;6.95;5.40;;;;;;;17.34;100.00;93473.91;5050514;28;20053;-76
2023/08/21 03:57:43;;;;;;;10.75;5.70;;;;;;;17.33;100.00;93475.72;5054715;28;20490;-75
2023/08/21 04:00:12;;;;;;;7.50;4.70;;;;;;;17.31;100.00;93479.59;5057050;28;20048;-76
2023/08/21 04:02:39;;;;;;;8.68;5.05;;;;;;;17.26;100.00;93474.34;5054044;28;20559;-75
2023/08/21 04:05:06;;;;;;;7.28;5.25;;;;;;;17.35;100.00;93485.84;5053853;28;20118;-75
2023/08/21 04:07:33;;;;;;;10.95;5.38;;;;;;;17.33;100.00;93482.72;5058913;28;20091;-76
2023/08/21 04:09:59;;;;;;;7.88;5.68;;;;;;;17.35;100.00;93480.66;5055640;28;20094;-76
2023/08/21 04:12:26;;;;;;;7.13;4.90;;;;;;;17.38;100.00;93480.16;5053653;28;20861;-76
2023/08/21 04:14:53;;;;;;;7.78;5.28;;;;;;;17.38;100.00;93484.56;5050782;28;20076;-76
2023/08/21 04:17:23;;;;;;;7.28;5.50;;;;;;;17.34;100.00;93484.28;5051055;28;20049;-76
2023/08/21 04:19:50;;;;;;;10.18;5.93;;;;;;;17.40;100.00;93488.50;5053479;28;20249;-76
2023/08/21 04:22:16;;;;;;;9.18;5.65;;;;;;;17.42;100.00;93483.84;5052454;28;20133;-77
2023/08/21 04:24:43;;;;;;;8.32;5.55;;;;;;;17.34;100.00;93473.91;5049987;28;20044;-77
2023/08/21 04:27:10;;;;;;;10.32;5.95;;;;;;;17.45;100.00;93496.34;5051976;28;20102;-77
2023/08/21 04:29:37;;;;;;;10.25;6.25;;;;;;;17.48;100.00;93498.44;5062198;28;20044;-77
2023/08/21 04:32:04;;;;;;;11.85;5.80;;;;;;;17.57;100.00;93498.78;5059914;28;20087;-77
2023/08/21 04:34:33;;;;;;;11.20;6.15;;;;;;;17.55;100.00;93485.25;5066980;28;20538;-77
2023/08/21 04:36:59;;;;;;;15.73;6.50;;;;;;;17.68;100.00;93498.88;5052005;28;20098;-76
2023/08/21 04:39:26;;;;;;;10.15;6.43;;;;;;;17.72;100.00;93497.34;5053935;28;20099;-76
2023/08/21 04:41:53;;;;;;;12.52;5.68;;;;;;;17.76;100.00;93496.63;5054629;28;20692;-76
2023/08/21 04:44:20;;;;;;;8.88;5.72;;;;;;;17.82;100.00;93491.47;5055024;28;20045;-76
2023/08/21 04:46:50;;;;;;;15.82;6.10;;;;;;;17.90;100.00;93502.19;5050503;28;20099;-76
2023/08/21 04:49:17;;;;;;;11.68;6.25;;;;;;;17.91;100.00;93487.38;5053745;28;20077;-76
2023/08/21 04:51:45;;;;;;;9.43;5.70;;;;;;;17.97;100.00;93501.19;5054613;28;20049;-76
2023/08/21 04:54:12;;;;;;;9.20;5.90;;;;;;;18.02;100.00;93501.22;5055649;28;20106;-76
2023/08/21 04:56:38;;;;;;;8.50;5.60;;;;;;;18.09;100.00;93506.25;5050050;28;20045;-76
2023/08/21 04:59:05;;;;;;;9.55;5.68;;;;;;;18.14;100.00;93496.66;5053092;28;20045;-76
2023/08/21 05:01:32;;;;;;;10.88;6.07;;;;;;;18.21;100.00;93504.25;5048859;28;20098;-76
2023/08/21 05:03:58;;;;;;;9.23;5.40;;;;;;;18.31;100.00;93511.34;5048880;28;20507;-76
2023/08/21 05:06:25;;;;;;;10.75;6.25;;;;;;;18.35;100.00;93509.00;5052784;28;20064;-76
2023/08/21 05:08:53;;;;;;;9.85;6.13;;;;;;;18.41;100.00;93513.22;5048500;28;20546;-76
2023/08/21 05:11:20;;;;;;;11.55;6.20;;;;;;;18.43;100.00;93516.38;5058752;28;20044;-76
2023/08/21 05:13:47;;;;;;;8.20;5.57;;;;;;;18.49;100.00;93517.97;5055447;28;20053;-76
2023/08/21 05:16:13;;;;;;;10.45;6.20;;;;;;;18.49;100.00;93514.56;5050917;28;20057;-76
2023/08/21 05:18:40;;;;;;;12.93;6.10;;;;;;;18.59;100.00;93521.63;5051124;28;20508;-77
2023/08/21 05:21:07;;;;;;;8.48;6.00;;;;;;;18.67;100.00;93518.56;5062267;28;20045;-77
2023/08/21 05:23:33;;;;;;;7.25;5.75;;;;;;;18.68;100.00;93520.13;5048061;28;20115;-78
2023/08/21 05:26:01;;;;;;;8.18;5.95;;;;;;;18.79;100.00;93526.94;5052208;28;20497;-78
2023/08/21 05:28:28;;;;;;;7.03;5.53;;;;;;;18.79;100.00;93523.59;5048489;28;20390;-77
2023/08/21 05:30:58;;;;;;;10.90;6.07;;;;;;;18.92;99.84;93522.31;5050690;28;20052;-76
2023/08/21 05:33:25;;;;;;;8.85;5.47;;;;;;;19.03;100.00;93515.34;5053630;28;20110;-76
2023/08/21 05:35:51;;;;;;;10.73;5.70;;;;;;;19.14;97.89;93513.56;5049209;28;20078;-75
2023/08/21 05:38:18;;;;;;;10.18;5.35;;;;;;;19.31;97.76;93518.59;5050065;28;20095;-76
2023/08/21 05:40:45;;;;;;;28.27;7.97;;;;;;;19.45;95.68;93519.66;5053640;28;20053;-76
2023/08/21 05:43:13;;;;;;;17.27;5.93;;;;;;;19.59;95.76;93519.19;5048188;28;20056;-75
2023/08/21 05:45:40;;;;;;;11.85;5.47;;;;;;;19.76;94.70;93511.09;5050841;28;20054;-75
2023/08/21 05:48:07;;;;;;;14.95;7.88;;;;;;;19.84;96.81;93515.03;5049239;28;20052;-76
2023/08/21 05:50:36;;;;;;;10.90;6.55;;;;;;;19.93;94.13;93521.28;5047835;28;20091;-76
2023/08/21 05:53:03;;;;;;;8.38;5.82;;;;;;;19.96;94.83;93514.78;5048245;28;20048;-76
2023/08/21 05:55:30;;;;;;;9.00;5.18;;;;;;;20.10;92.76;93515.84;5059703;28;20869;-76
2023/08/21 05:57:57;;;;;;;8.73;5.72;;;;;;;20.14;93.49;93506.44;5047590;28;20102;-76
2023/08/21 06:00:25;;;;;;;11.95;6.68;;;;;;;20.28;92.46;93506.69;5048634;28;20045;-76
2023/08/21 06:02:51;;;;;;;15.02;6.75;;;;;;;20.43;91.98;93507.72;5054128;28;20770;-75
2023/08/21 06:05:18;;;;;;;9.82;6.30;;;;;;;20.56;90.85;93493.34;5049169;28;20048;-75
2023/08/21 06:07:45;;;;;;;9.43;5.70;;;;;;;20.79;90.25;93507.63;5047849;28;20041;-76
2023/08/21 06:10:12;;;;;;;8.30;5.38;;;;;;;20.92;89.27;93502.94;5056322;28;20559;-76
2023/08/21 06:12:39;;;;;;;11.95;5.70;;;;;;;21.06;89.19;93513.59;5051943;28;20427;-75
2023/08/21 06:15:07;;;;;;;9.30;5.43;;;;;;;21.03;88.59;93494.00;5050891;28;20044;-75
2023/08/21 06:17:36;;;;;;;8.40;5.35;;;;;;;21.28;87.71;93515.81;5054405;28;20156;-76
2023/08/21 06:20:05;;;;;;;7.55;5.47;;;;;;;21.39;86.05;93507.94;5047531;28;20087;-76
2023/08/21 06:22:32;;;;;;;10.23;5.75;;;;;;;21.58;87.40;93511.47;5047377;28;20566;-75
2023/08/21 06:24:59;;;;;;;10.88;6.28;;;;;;;21.75;86.44;93511.13;5051440;28;20053;-76
2023/08/21 06:27:25;;;;;;;14.18;6.35;;;;;;;22.02;85.80;93517.75;5048966;28;21037;-76
2023/08/21 06:29:52;;;;;;;16.10;6.28;;;;;;;22.27;83.88;93518.56;5047131;28;20091;-76
2023/08/21 06:32:19;;;;;;;17.30;6.57;;;;;;;22.58;82.58;93524.63;5047618;28;20049;-74
2023/08/21 06:34:47;;;;;;;16.63;5.97;;;;;;;22.82;80.91;93517.53;5046920;28;20095;-74
2023/08/21 06:37:14;;;;;;;12.48;6.20;;;;;;;23.11;79.01;93521.16;5048087;28;20048;-75
2023/08/21 06:39:40;;;;;;;14.10;6.03;;;;;;;23.23;77.12;93523.34;5049723;28;20059;-75
2023/08/21 06:42:07;;;;;;;8.55;5.47;;;;;;;23.46;76.98;93516.53;5047402;28;20110;-74
2023/08/21 06:44:34;;;;;;;9.95;5.40;;;;;;;23.68;75.82;93525.69;5049148;28;20071;-75
2023/08/21 06:47:01;;;;;;;10.68;4.68;;;;;;;23.89;75.20;93517.53;5052302;28;20094;-75
2023/08/21 06:49:28;;;;;;;11.65;5.13;;;;;;;24.19;74.67;93517.34;5049890;28;20048;-75
2023/08/21 06:51:56;;;;;;;11.68;4.95;;;;;;;24.36;73.35;93503.69;5055963;28;20119;-75
2023/08/21 06:54:22;;;;;;;9.20;4.45;;;;;;;24.61;73.18;93515.56;5050473;28;20456;-74
2023/08/21 06:56:49;;;;;;;7.70;4.45;;;;;;;24.63;71.30;93516.06;5053736;28;20052;-74
2023/08/21 06:59:16;;;;;;;8.48;4.18;;;;;;;24.89;71.39;93520.09;5058878;28;20048;-75
2023/08/21 07:01:42;;;;;;;13.30;5.22;;;;;;;25.08;69.62;93519.97;5049893;28;20092;-74
2023/08/21 07:04:09;;;;;;;15.65;5.07;;;;;;;25.32;70.13;93516.38;5047888;28;20725;-75
2023/08/21 07:06:36;;;;;;;16.58;4.90;;;;;;;25.55;69.11;93516.44;5048485;28;20045;-73
2023/08/21 07:09:04;;;;;;;18.25;5.25;;;;;;;25.75;69.14;93513.34;5048596;28;20844;-75
2023/08/21 07:11:30;;;;;;;14.98;5.15;;;;;;;25.93;67.82;93518.75;5061039;28;20053;-74
2023/08/21 07:13:58;;;;;;;9.77;3.88;;;;;;;26.18;67.12;93515.78;5056554;28;20492;-75
2023/08/21 07:16:26;;;;;;;16.25;4.57;;;;;;;26.36;66.65;93521.97;5048691;28;20049;-74
2023/08/21 07:18:53;;;;;;;14.52;6.25;;;;;;;26.57;66.33;93505.66;5052245;28;20056;-75
2023/08/21 07:21:20;;;;;;;18.80;4.95;;;;;;;26.98;64.17;93519.63;5050569;28;20045;-75
2023/08/21 07:23:47;;;;;;;13.13;4.32;;;;;;;27.21;62.96;93529.00;5048380;28;20049;-75
2023/08/21 07:26:15;;;;;;;10.32;4.75;;;;;;;27.43;63.05;93518.63;5056511;28;20041;-75
2023/08/21 07:28:41;;;;;;;9.93;3.85;;;;;;;27.72;61.48;93527.84;5050683;28;20115;-75
2023/08/21 07:31:08;;;;;;;8.30;3.80;;;;;;;27.95;60.88;93517.91;5052165;28;20099;-75
2023/08/21 07:33:35;;;;;;;8.60;4.00;;;;;;;28.19;58.10;93521.91;5053950;28;20052;-75
2023/08/21 07:36:03;;;;;;;8.65;3.92;;;;;;;28.35;54.08;93518.78;5047119;28;20106;-75
2023/08/21 07:38:30;;;;;;;6.82;3.78;;;;;;;28.22;55.92;93531.06;5054408;28;20051;-74
2023/08/21 07:41:05;;;;;;;9.27;4.13;;;;;;;28.54;56.00;93519.22;5045760;28;20129;-74
2023/08/21 07:43:33;;;;;;;9.13;3.30;;;;;;;28.89;53.48;93522.84;5049146;28;20056;-75
2023/08/21 07:46:04;;;;;;;9.80;4.28;;;;;;;29.23;54.99;93512.38;5049947;28;20045;-75
2023/08/21 07:48:31;;;;;;;5.00;3.30;;;;;;;29.50;50.33;93513.81;5052134;28;20130;-75
2023/08/21 07:50:58;;;;;;;8.52;3.63;;;;;;;29.71;53.02;93511.16;5047945;28;20596;-75
2023/08/21 07:53:25;;;;;;;8.20;3.53;;;;;;;29.42;49.33;93525.97;5048219;28;20048;-75
2023/08/21 07:55:52;;;;;;;4.90;3.08;;;;;;;29.49;49.89;93522.84;5047250;28;20060;-75
2023/08/21 07:58:19;;;;;;;4.78;3.20;;;;;;;29.20;49.09;93522.53;5047178;28;20044;-75
2023/08/21 08:00:47;;;;;;;5.47;3.67;;;;;;;29.47;50.21;93512.56;5050949;28;20056;-75
2023/08/21 08:03:15;;;;;;;3.90;2.85;;;;;;;29.61;49.04;93514.19;5053933;28;20063;-75
2023/08/21 08:05:42;;;;;;;9.13;3.35;;;;;;;29.27;49.40;93513.31;5053951;28;20171;-75
2023/08/21 08:08:09;;;;;;;4.10;3.22;;;;;;;28.96;48.65;93515.19;5051686;28;20747;-74
2023/08/21 08:10:38;;;;;;;5.78;3.47;;;;;;;28.98;49.65;93514.88;5051438;28;20787;-74
2023/08/21 08:13:05;;;;;;;6.40;3.28;;;;;;;29.09;49.39;93508.13;5052618;28;20539;-74
2023/08/21 08:15:33;;;;;;;6.88;2.95;;;;;;;28.90;48.21;93508.53;5051084;28;20133;-74
2023/08/21 08:18:02;;;;;;;3.85;2.80;;;;;;;28.91;48.90;93513.50;5051985;28;20045;-74
2023/08/21 08:20:29;;;;;;;4.20;2.85;;;;;;;29.02;47.74;93513.91;5051927;28;20045;-74
2023/08/21 08:22:56;;;;;;;3.67;2.88;;;;;;;29.06;48.54;93506.88;5053336;28;20110;-74
2023/08/21 08:25:23;;;;;;;3.72;2.80;;;;;;;29.21;47.86;93502.16;5051389;28;20044;-74
2023/08/21 08:27:50;;;;;;;5.47;3.28;;;;;;;29.39;47.59;93508.09;5053625;28;20518;-75
2023/08/21 08:30:17;;;;;;;7.00;3.63;;;;;;;29.65;48.17;93507.16;5052975;28;20049;-75
2023/08/21 08:32:45;;;;;;;5.53;3.28;;;;;;;29.94;47.21;93502.88;5053623;28;20052;-75
2023/08/21 08:35:13;;;;;;;5.30;3.20;;;;;;;29.92;46.83;93481.25;5053146;28;20507;-75
2023/08/21 08:37:40;;;;;;;5.63;3.65;;;;;;;30.40;47.09;93500.28;5051231;28;20605;-74
2023/08/21 08:40:08;;;;;;;3.80;3.08;;;;;;;30.76;46.39;93499.88;5049435;28;20110;-75
2023/08/21 08:42:35;;;;;;;5.72;3.40;;;;;;;30.45;45.47;93496.63;5054241;28;20040;-75
2023/08/21 08:45:05;;;;;;;4.97;3.10;;;;;;;30.12;46.04;93500.88;5049576;28;20064;-74
2023/08/21 08:47:33;;;;;;;4.20;3.03;;;;;;;30.32;46.55;93495.06;5049575;28;20049;-75
2023/08/21 08:50:03;;;;;;;4.32;3.00;;;;;;;30.03;43.24;93494.09;5054959;28;20131;-74
2023/08/21 08:52:34;;;;;;;5.05;2.85;;;;;;;30.11;44.34;93490.59;5052089;28;20082;-74
2023/08/21 08:55:02;;;;;;;8.93;4.38;;;;;;;30.32;44.04;93487.13;5050402;28;20098;-74
2023/08/21 08:57:28;;;;;;;6.10;2.75;;;;;;;30.21;44.19;93484.09;5051082;28;20064;-74
2023/08/21 08:59:55;;;;;;;4.63;3.17;;;;;;;29.98;44.78;93485.22;5050272;28;20501;-74
2023/08/21 09:02:22;;;;;;;4.32;2.85;;;;;;;30.40;44.01;93487.03;5052979;28;20045;-76
2023/08/21 09:04:49;;;;;;;7.40;2.83;;;;;;;30.34;41.21;93487.56;5056393;28;20049;-75
2023/08/21 09:07:18;;;;;;;7.07;3.60;;;;;;;30.50;44.06;93482.41;5051666;28;20048;-75
2023/08/21 09:09:49;;;;;;;6.05;2.90;;;;;;;30.57;42.53;93489.78;5047914;28;20095;-75
2023/08/21 09:12:16;;;;;;;4.30;2.95;;;;;;;30.57;42.67;93482.63;5049398;28;20043;-75
2023/08/21 09:14:45;;;;;;;5.43;3.28;;;;;;;30.52;42.84;93486.28;5053275;28;20098;-75
2023/08/21 09:17:12;;;;;;;5.55;2.97;;;;;;;30.72;43.34;93485.78;5048128;28;20083;-75
2023/08/21 09:19:39;;;;;;;3.85;2.72;;;;;;;30.89;42.08;93492.72;5048782;28;20075;-75
2023/08/21 09:22:10;;;;;;;6.95;2.90;;;;;;;30.65;41.68;93483.63;5053047;28;20056;-75
2023/08/21 09:24:37;;;;;;;3.55;2.47;;;;;;;31.12;41.37;93486.94;5048166;28;20486;-75
2023/08/21 09:27:14;;;;;;;4.88;2.90;;;;;;;31.27;41.42;93480.97;5051998;28;20110;-74
2023/08/21 09:29:41;;;;;;;3.63;2.50;;;;;;;30.99;41.59;93472.91;5047581;28;20497;-75
2023/08/21 09:32:08;;;;;;;4.20;3.17;;;;;;;31.22;41.63;93485.72;5056641;28;20049;-75
2023/08/21 09:34:36;;;;;;;7.68;3.28;;;;;;;31.42;40.98;93489.38;5051152;28;20398;-75
2023/08/21 09:37:06;;;;;;;5.25;2.67;;;;;;;31.50;41.28;93479.72;5057599;28;20159;-75
2023/08/21 09:39:35;;;;;;;4.40;2.83;;;;;;;31.34;40.92;93477.78;5052188;28;20129;-75
2023/08/21 09:42:02;;;;;;;4.90;3.08;;;;;;;31.32;40.83;93488.72;5048779;28;20122;-75
2023/08/21 09:44:35;;;;;;;4.05;2.90;;;;;;;31.10;41.06;93489.19;5048328;28;20472;-75
2023/08/21 09:47:03;;;;;;;3.90;2.80;;;;;;;31.04;40.78;93480.66;5047424;28;20056;-75
2023/08/21 09:49:30;;;;;;;4.63;2.88;;;;;;;30.99;41.23;93472.91;5050791;28;20053;-75
2023/08/21 09:52:00;;;;;;;4.88;3.47;;;;;;;31.41;41.97;93471.88;5048548;28;20460;-75
2023/08/21 09:54:27;;;;;;;6.07;3.22;;;;;;;31.13;41.40;93465.41;5048201;28;20053;-75
2023/08/21 09:56:54;;;;;;;5.15;3.10;;;;;;;31.15;41.50;93470.38;5057082;28;20053;-75
2023/08/21 09:59:22;;;;;;;5.85;3.22;;;;;;;31.73;41.93;93464.81;5056801;28;20090;-76
2023/08/21 10:01:51;;;;;;;4.47;3.83;;;;;;;32.01;40.36;93459.88;5058297;28;20443;-76
2023/08/21 10:04:19;;;;;;;4.68;2.92;;;;;;;31.39;39.34;93456.31;5049504;28;20131;-76
2023/08/21 10:06:50;;;;;;;4.50;2.90;;;;;;;31.72;40.16;93457.97;5048129;28;20681;-75
2023/08/21 10:09:17;;;;;;;4.82;3.40;;;;;;;31.59;40.76;93451.94;5052301;28;20102;-76
2023/08/21 10:11:44;;;;;;;5.28;3.42;;;;;;;31.61;39.84;93464.88;5053624;28;20053;-75
2023/08/21 10:14:12;;;;;;;5.57;3.58;;;;;;;31.39;41.02;93450.22;5057075;28;20049;-76
2023/08/21 10:16:39;;;;;;;5.72;3.15;;;;;;;31.21;39.79;93455.78;5052655;28;20488;-74
2023/08/21 10:19:08;;;;;;;4.15;3.45;;;;;;;31.67;39.57;93452.91;5047042;28;20053;-75
2023/08/21 10:21:37;;;;;;;4.60;3.10;;;;;;;31.49;38.26;93438.34;5046595;28;20485;-74
2023/08/21 10:24:04;;;;;;;4.03;2.63;;;;;;;31.59;39.02;93443.97;5046526;28;20132;-74
2023/08/21 10:26:31;;;;;;;5.40;3.47;;;;;;;32.08;37.74;93428.16;5050808;28;20106;-75
2023/08/21 10:29:02;;;;;;;4.75;3.28;;;;;;;32.15;38.42;93438.97;5054068;28;20115;-76
2023/08/21 10:31:34;;;;;;;6.75;3.40;;;;;;;32.34;38.72;93440.94;5064838;28;20500;-76
2023/08/21 10:34:03;;;;;;;5.30;3.08;;;;;;;31.80;38.38;93436.91;5051759;28;20060;-75
2023/08/21 10:37:09;;;;;;;4.97;3.33;;;;;;;31.96;38.04;93419.16;5047974;28;20512;-76
2023/08/21 10:39:39;;;;;;;4.85;3.75;;;;;;;32.35;37.28;93407.94;5009479;28;20424;-75
2023/08/21 10:42:08;;;;;;;7.32;3.65;;;;;;;31.97;36.18;93441.16;5053250;28;20041;-75
2023/08/21 10:44:36;;;;;;;5.65;3.10;;;;;;;32.35;37.93;93431.09;5052138;28;20408;-75
2023/08/21 10:47:16;;;;;;;6.25;3.38;;;;;;;32.71;37.01;93426.63;5050990;28;20041;-74
2023/08/21 10:49:44;;;;;;;6.05;3.00;;;;;;;33.18;36.74;93433.00;5057536;28;20049;-74
2023/08/21 10:52:13;;;;;;;6.18;3.22;;;;;;;33.04;36.91;93432.72;5047133;28;20788;-75
2023/08/21 10:54:51;;;;;;;7.70;3.20;;;;;;;32.83;35.87;93427.66;5047847;28;20055;-74
2023/08/21 10:57:18;;;;;;;4.32;3.10;;;;;;;32.83;35.56;93417.78;5047811;28;20037;-75
2023/08/21 10:59:56;;;;;;;5.45;3.03;;;;;;;33.11;35.93;93432.84;5052017;28;20983;-75
2023/08/21 11:02:23;;;;;;;6.25;3.13;;;;;;;33.03;35.11;93423.94;5049309;28;20142;-75
2023/08/21 11:04:51;;;;;;;5.22;2.88;;;;;;;33.35;34.70;93423.06;5048678;28;20056;-75
2023/08/21 11:07:19;;;;;;;6.20;2.95;;;;;;;33.39;33.55;93429.22;5048757;28;20530;-75
2023/08/21 11:09:46;;;;;;;5.18;3.10;;;;;;;32.59;34.29;93416.88;5048896;28;20422;-75
2023/08/21 11:12:14;;;;;;;4.55;3.03;;;;;;;33.15;34.27;93422.28;5051817;28;20571;-75
2023/08/21 11:14:41;;;;;;;5.25;3.15;;;;;;;33.57;33.97;93416.31;5049514;28;20045;-75
2023/08/21 11:17:09;;;;;;;4.88;2.83;;;;;;;33.81;32.82;93400.34;5049180;28;20049;-75
2023/08/21 11:19:37;;;;;;;4.60;2.95;;;;;;;34.24;34.13;93400.31;5054790;28;20041;-75
2023/08/21 11:22:05;;;;;;;4.05;2.67;;;;;;;33.87;32.97;93409.59;5052873;28;20060;-75
2023/08/21 11:24:41;;;;;;;3.97;2.88;;;;;;;33.67;33.21;93409.63;5051364;28;20070;-75
2023/08/21 11:27:09;;;;;;;8.32;3.42;;;;;;;33.80;33.60;93412.91;5050017;28;20497;-75
2023/08/21 11:29:38;;;;;;;4.05;2.55;;;;;;;33.77;32.06;93399.53;5044482;28;20557;-75
2023/08/21 11:32:09;;;;;;;3.45;2.45;;;;;;;34.25;30.70;93404.56;5049237;28;20142;-75